Terminal Aerodrome Forecast
Issued by NWS Duluth, MN

Home | Current Version | Previous Version | Text Only | Print | Product List | Glossary On
Versions: 1 2 3 4 5 6 7 8 9 10 11 12 13 14 15 16 17 18 19 20 21 22 23 24 25 26 27 28 29 30 31 32 33 34 35 36
387
FTUS43 KDLH 202149 AAC
TAFDLH
TAF AMD
KDLH 202149Z 2022/2118 14010KT 1SM RA OVC004
     FM210100 22010KT 6SM -RA OVC007
     FM210500 26012KT P6SM BKN007
     FM210900 26007KT 5SM BR SCT007
     FM211400 24010KT P6SM SCT250=

USA.gov is the U.S. government's official web portal to all federal, state and local government web resources and services.